Time;durP1;ratioP1;P1;durP2;ratioP2;P2;SDS_P1;SDS_P2;PMS_P1;PMS_P2;Temp;Humidity;BMP_temperature;BMP_pressure;BME280_temperature;BME280_humidity;BME280_pressure;Samples;Min_cycle;Max_cycle;Signal;HPM_P1;HPM_P2
2024/01/02 00:01:20;;;;;;;2.38;1.10;;;21.30;38.10;;;;;;4986636;28;20030;-61
2024/01/02 00:03:46;;;;;;;4.70;1.08;;;21.30;38.10;;;;;;4988690;28;20068;-60
2024/01/02 00:06:15;;;;;;;3.50;1.23;;;21.30;38.10;;;;;;4986547;28;20034;-60
2024/01/02 00:08:42;;;;;;;3.50;1.27;;;21.20;38.00;;;;;;4989945;28;20081;-61
2024/01/02 00:11:12;;;;;;;2.78;1.00;;;21.30;38.10;;;;;;4984064;28;20068;-61
2024/01/02 00:13:38;;;;;;;3.75;1.48;;;21.20;38.10;;;;;;4988955;28;20045;-60
2024/01/02 00:16:04;;;;;;;3.15;1.08;;;21.20;38.10;;;;;;4986586;28;20373;-61
2024/01/02 00:18:29;;;;;;;2.40;1.08;;;21.20;38.10;;;;;;4990413;28;20437;-61
2024/01/02 00:20:56;;;;;;;3.38;1.10;;;21.20;38.10;;;;;;4988144;28;20038;-60
2024/01/02 00:23:22;;;;;;;2.78;1.08;;;21.20;38.20;;;;;;4990203;28;20043;-60
2024/01/02 00:25:48;;;;;;;3.45;0.90;;;21.20;38.20;;;;;;4991181;28;20096;-60
2024/01/02 00:28:14;;;;;;;3.25;1.35;;;21.20;38.20;;;;;;4983770;28;20029;-60
2024/01/02 00:30:40;;;;;;;2.42;0.93;;;21.20;38.20;;;;;;4981365;28;20047;-60
2024/01/02 00:33:08;;;;;;;2.25;0.80;;;21.20;38.20;;;;;;4988052;28;20105;-61
2024/01/02 00:35:34;;;;;;;2.53;0.85;;;21.20;38.20;;;;;;4982520;28;20049;-60
2024/01/02 00:38:00;;;;;;;2.35;1.20;;;21.20;38.30;;;;;;4988701;28;20030;-60
2024/01/02 00:40:26;;;;;;;1.80;0.70;;;21.20;38.40;;;;;;4983112;28;20031;-61
2024/01/02 00:42:52;;;;;;;2.38;0.82;;;21.20;38.30;;;;;;4989939;28;20441;-61
2024/01/02 00:45:18;;;;;;;2.35;0.80;;;21.20;38.40;;;;;;4980913;28;20374;-60
2024/01/02 00:47:44;;;;;;;2.42;1.00;;;21.20;38.40;;;;;;4988122;28;20022;-61
2024/01/02 00:50:10;;;;;;;1.95;0.70;;;21.20;38.40;;;;;;4989041;28;20128;-61
2024/01/02 00:52:36;;;;;;;1.75;0.90;;;21.20;38.40;;;;;;4990243;28;20049;-61
2024/01/02 00:55:03;;;;;;;2.53;0.90;;;21.20;38.40;;;;;;4987428;28;20035;-61
2024/01/02 00:57:30;;;;;;;1.73;0.68;;;21.20;38.50;;;;;;4984955;28;20362;-60
2024/01/02 00:59:57;;;;;;;2.05;0.85;;;21.20;38.50;;;;;;4985915;28;20037;-61
2024/01/02 01:02:23;;;;;;;1.90;0.80;;;21.20;38.50;;;;;;4983049;28;20420;-61
2024/01/02 01:04:49;;;;;;;2.17;0.90;;;21.10;38.50;;;;;;4983996;28;20588;-61
2024/01/02 01:07:15;;;;;;;2.90;0.80;;;21.10;38.50;;;;;;4980894;28;20041;-60
2024/01/02 01:09:41;;;;;;;1.60;0.82;;;21.10;38.50;;;;;;4989966;28;20065;-60
2024/01/02 01:12:07;;;;;;;1.75;0.68;;;21.10;38.50;;;;;;4984675;28;20795;-61
2024/01/02 01:14:33;;;;;;;2.28;0.88;;;21.10;38.60;;;;;;4987747;28;20894;-61
2024/01/02 01:16:59;;;;;;;1.20;0.47;;;21.10;38.60;;;;;;4992282;28;20396;-60
2024/01/02 01:19:26;;;;;;;1.50;0.60;;;21.10;38.60;;;;;;4987203;28;20030;-62
2024/01/02 01:21:52;;;;;;;2.33;0.80;;;21.10;38.60;;;;;;4984052;28;20117;-60
2024/01/02 01:24:18;;;;;;;1.42;0.70;;;21.10;38.60;;;;;;4984523;28;20506;-61
2024/01/02 01:26:44;;;;;;;1.45;0.70;;;21.10;38.70;;;;;;4981519;28;20037;-61
2024/01/02 01:29:12;;;;;;;2.63;0.90;;;21.10;38.70;;;;;;4996716;28;20034;-61
2024/01/02 01:31:38;;;;;;;1.23;0.60;;;21.10;38.70;;;;;;4984039;28;20035;-61
2024/01/02 01:34:04;;;;;;;1.20;0.60;;;21.10;38.70;;;;;;4979774;28;20362;-61
2024/01/02 01:36:30;;;;;;;2.00;0.68;;;21.10;38.80;;;;;;4984298;28;20045;-61
2024/01/02 01:38:56;;;;;;;1.60;0.70;;;21.10;38.80;;;;;;4987933;28;20112;-61
2024/01/02 01:41:22;;;;;;;1.70;0.68;;;21.10;38.80;;;;;;4986784;28;20121;-60
2024/01/02 01:43:48;;;;;;;2.78;0.68;;;21.10;38.80;;;;;;4989763;28;20034;-61
2024/01/02 01:46:15;;;;;;;1.73;0.80;;;21.10;38.80;;;;;;4987995;28;20026;-61
2024/01/02 01:48:42;;;;;;;1.88;0.80;;;21.10;38.80;;;;;;4984686;28;20112;-59
2024/01/02 01:51:08;;;;;;;1.50;0.68;;;21.10;38.90;;;;;;4985569;28;20479;-60
2024/01/02 01:53:35;;;;;;;1.25;0.60;;;21.10;38.90;;;;;;4984425;28;20053;-60
2024/01/02 01:56:02;;;;;;;1.45;0.65;;;21.10;38.90;;;;;;4987810;28;20061;-61
2024/01/02 01:58:30;;;;;;;1.98;0.68;;;21.10;38.90;;;;;;4984419;28;20022;-60
2024/01/02 02:00:56;;;;;;;1.23;0.68;;;21.00;38.90;;;;;;4984075;28;20030;-61
2024/01/02 02:03:25;;;;;;;1.35;0.52;;;21.10;39.00;;;;;;4983801;28;20037;-60
2024/01/02 02:05:51;;;;;;;1.85;0.57;;;21.10;39.00;;;;;;4991370;28;20029;-60
2024/01/02 02:08:16;;;;;;;1.65;0.65;;;21.00;39.60;;;;;;4988117;28;20038;-61
2024/01/02 02:10:42;;;;;;;0.98;0.40;;;21.10;39.00;;;;;;4980287;28;20061;-60
2024/01/02 02:13:08;;;;;;;1.33;0.50;;;21.10;39.70;;;;;;4987599;28;20357;-60
2024/01/02 02:15:38;;;;;;;1.55;0.50;;;21.00;39.00;;;;;;4982100;28;20062;-59
2024/01/02 02:18:05;;;;;;;0.65;0.50;;;21.00;39.00;;;;;;4987617;28;20341;-59
2024/01/02 02:20:30;;;;;;;1.90;0.55;;;21.00;39.00;;;;;;4980995;28;20042;-60
2024/01/02 02:22:56;;;;;;;0.88;0.40;;;21.00;39.10;;;;;;4979503;28;20354;-60
2024/01/02 02:25:22;;;;;;;0.80;0.40;;;21.00;39.10;;;;;;4982484;28;20026;-60
2024/01/02 02:27:48;;;;;;;0.63;0.35;;;21.00;39.10;;;;;;4981951;28;20030;-60
2024/01/02 02:30:14;;;;;;;1.00;0.50;;;21.00;39.10;;;;;;4989316;28;20040;-61
2024/01/02 02:32:40;;;;;;;1.00;0.60;;;21.00;39.10;;;;;;4983907;28;20030;-60
2024/01/02 02:35:06;;;;;;;0.45;0.30;;;21.00;39.10;;;;;;4984951;28;20031;-61
2024/01/02 02:37:32;;;;;;;1.63;0.55;;;21.00;39.20;;;;;;4982094;28;20077;-60
2024/01/02 02:39:58;;;;;;;0.40;0.30;;;21.00;39.20;;;;;;4980174;28;20351;-60
2024/01/02 02:42:24;;;;;;;0.88;0.40;;;21.00;39.20;;;;;;4984930;28;20445;-60
2024/01/02 02:44:50;;;;;;;0.80;0.35;;;21.00;39.20;;;;;;4981635;28;20018;-60
2024/01/02 02:47:16;;;;;;;1.17;0.40;;;21.00;39.20;;;;;;4989418;28;20208;-60
2024/01/02 02:49:42;;;;;;;0.90;0.40;;;21.00;39.20;;;;;;4981349;28;20093;-62
2024/01/02 02:52:09;;;;;;;1.05;0.60;;;21.00;39.20;;;;;;4980431;28;20389;-61
2024/01/02 02:54:34;;;;;;;0.70;0.40;;;21.00;39.30;;;;;;4980193;28;20409;-60
2024/01/02 02:57:00;;;;;;;1.13;0.50;;;21.00;39.30;;;;;;4982739;28;20105;-61
2024/01/02 02:59:27;;;;;;;1.15;0.38;;;20.90;39.20;;;;;;4983517;28;20334;-60
2024/01/02 03:01:52;;;;;;;0.52;0.30;;;21.00;39.30;;;;;;4979991;28;20373;-61
2024/01/02 03:04:18;;;;;;;0.90;0.32;;;21.00;39.30;;;;;;4987394;28;20023;-61
2024/01/02 03:06:44;;;;;;;0.90;0.32;;;21.00;39.30;;;;;;4984936;28;20098;-61
2024/01/02 03:09:10;;;;;;;0.40;0.20;;;21.00;39.30;;;;;;4988445;28;20050;-61
2024/01/02 03:11:36;;;;;;;0.55;0.20;;;20.90;39.30;;;;;;4980569;28;20386;-61
2024/01/02 03:14:02;;;;;;;0.57;0.47;;;20.90;39.30;;;;;;4980430;28;20030;-61
2024/01/02 03:16:28;;;;;;;0.52;0.30;;;20.90;39.30;;;;;;4986435;28;20034;-61
2024/01/02 03:18:54;;;;;;;0.45;0.17;;;20.90;39.30;;;;;;4991099;28;20476;-61
2024/01/02 03:21:27;;;;;;;0.22;0.10;;;20.90;39.30;;;;;;4981628;28;20043;-60
2024/01/02 03:23:56;;;;;;;0.85;0.20;;;20.90;39.30;;;;;;4979144;28;20622;-61
2024/01/02 03:26:21;;;;;;;0.65;0.20;;;20.90;39.40;;;;;;4985937;28;20030;-61
2024/01/02 03:28:47;;;;;;;0.40;0.20;;;20.90;39.40;;;;;;4989619;28;20030;-60
2024/01/02 03:31:13;;;;;;;0.60;0.30;;;20.90;39.40;;;;;;4984769;28;20042;-61
2024/01/02 03:33:39;;;;;;;0.50;0.20;;;20.90;39.40;;;;;;4981700;28;20030;-61
2024/01/02 03:36:12;;;;;;;0.30;0.20;;;20.90;39.50;;;;;;4983123;28;20066;-61
2024/01/02 03:38:38;;;;;;;0.43;0.20;;;20.90;39.50;;;;;;4985746;28;20030;-61
2024/01/02 03:41:03;;;;;;;0.60;0.20;;;20.90;39.50;;;;;;4985743;28;20096;-60
2024/01/02 03:43:29;;;;;;;0.28;0.13;;;20.90;39.50;;;;;;4990104;28;20030;-60
2024/01/02 03:45:55;;;;;;;0.03;0.03;;;20.90;39.50;;;;;;4988880;28;20022;-61
2024/01/02 03:48:23;;;;;;;0.10;0.10;;;20.90;39.50;;;;;;4989709;28;20034;-60
2024/01/02 03:50:49;;;;;;;0.40;0.22;;;20.90;39.60;;;;;;4994472;28;20041;-60
2024/01/02 03:53:15;;;;;;;1.05;0.30;;;20.90;39.60;;;;;;4987629;28;20350;-61
2024/01/02 03:55:41;;;;;;;0.75;0.40;;;20.80;39.60;;;;;;4982820;28;20034;-60
2024/01/02 03:58:06;;;;;;;0.55;0.30;;;20.90;39.60;;;;;;4999244;28;20057;-61
2024/01/02 04:00:33;;;;;;;0.47;0.10;;;20.80;39.60;;;;;;4984674;28;20050;-62
2024/01/02 04:02:59;;;;;;;1.52;0.47;;;20.80;39.60;;;;;;4988777;28;20118;-61
2024/01/02 04:05:25;;;;;;;0.13;0.10;;;20.80;39.60;;;;;;4981672;28;20117;-61
2024/01/02 04:07:51;;;;;;;0.90;0.30;;;20.80;39.70;;;;;;4987964;28;20057;-61
2024/01/02 04:10:17;;;;;;;0.45;0.20;;;20.80;39.70;;;;;;4988914;28;20395;-61
2024/01/02 04:12:43;;;;;;;0.20;0.10;;;20.80;39.70;;;;;;4989099;28;20093;-61
2024/01/02 04:15:09;;;;;;;0.10;0.10;;;20.80;39.70;;;;;;4984069;28;20031;-60
2024/01/02 04:17:35;;;;;;;0.20;0.10;;;20.90;39.90;;;;;;4993598;28;20022;-60
2024/01/02 04:20:00;;;;;;;0.52;0.10;;;20.80;39.80;;;;;;4989219;28;20106;-61
2024/01/02 04:22:26;;;;;;;0.40;0.17;;;20.80;39.80;;;;;;4984790;28;21947;-61
2024/01/02 04:24:52;;;;;;;0.10;0.10;;;20.80;39.90;;;;;;4987120;28;20022;-60
2024/01/02 04:27:18;;;;;;;0.52;0.05;;;20.80;39.90;;;;;;4986571;28;20026;-61
2024/01/02 04:29:44;;;;;;;0.77;0.10;;;20.80;39.90;;;;;;4990993;28;20022;-60
2024/01/02 04:32:10;;;;;;;0.20;0.10;;;20.80;39.90;;;;;;4980944;28;20133;-60
2024/01/02 04:34:36;;;;;;;0.40;0.20;;;20.80;40.00;;;;;;4981434;28;20038;-60
2024/01/02 04:37:02;;;;;;;0.63;0.10;;;20.80;40.00;;;;;;4980996;28;20053;-59
2024/01/02 04:39:28;;;;;;;0.10;0.08;;;20.80;40.10;;;;;;4986608;28;20027;-59
2024/01/02 04:41:54;;;;;;;0.20;0.10;;;20.80;40.10;;;;;;4983346;28;20029;-60
2024/01/02 04:44:20;;;;;;;0.00;0.00;;;20.80;40.20;;;;;;4982842;28;20493;-61
2024/01/02 04:46:46;;;;;;;0.25;0.10;;;20.80;40.20;;;;;;4982439;28;20082;-61
2024/01/02 04:49:13;;;;;;;0.55;0.10;;;20.70;40.20;;;;;;4978522;28;20442;-61
2024/01/02 04:51:39;;;;;;;0.08;0.08;;;20.80;40.20;;;;;;4987962;28;20429;-61
2024/01/02 04:54:04;;;;;;;0.10;0.10;;;20.70;40.20;;;;;;4984783;28;20122;-61
2024/01/02 04:56:30;;;;;;;0.00;0.00;;;20.70;40.30;;;;;;4985709;28;20046;-61
2024/01/02 04:58:56;;;;;;;0.25;0.10;;;20.70;40.30;;;;;;4983133;28;20023;-60
2024/01/02 05:01:22;;;;;;;0.00;0.00;;;20.70;40.40;;;;;;4989572;28;20323;-61
2024/01/02 05:03:47;;;;;;;0.10;0.03;;;20.70;40.40;;;;;;4978732;28;20059;-62
2024/01/02 05:06:13;;;;;;;0.35;0.00;;;20.70;40.50;;;;;;4981848;28;20023;-60
2024/01/02 05:08:39;;;;;;;0.15;0.10;;;20.70;40.50;;;;;;4986152;28;20065;-60
2024/01/02 05:11:05;;;;;;;0.30;0.10;;;20.70;40.50;;;;;;4983449;28;20051;-61
2024/01/02 05:13:30;;;;;;;0.15;0.10;;;20.70;40.50;;;;;;4988137;28;20048;-61
2024/01/02 05:15:56;;;;;;;0.17;0.10;;;20.70;40.60;;;;;;4979991;28;20034;-61
2024/01/02 05:18:22;;;;;;;0.00;0.00;;;20.70;40.60;;;;;;4986603;28;20042;-61
2024/01/02 05:20:48;;;;;;;0.20;0.10;;;20.70;40.70;;;;;;4978794;28;20030;-60
2024/01/02 05:23:14;;;;;;;0.00;0.00;;;20.70;40.80;;;;;;4987362;28;20416;-60
2024/01/02 05:25:40;;;;;;;0.00;0.00;;;20.70;40.80;;;;;;4982445;28;20035;-61
2024/01/02 05:28:06;;;;;;;0.30;0.10;;;20.70;40.90;;;;;;4983890;28;20030;-60
2024/01/02 05:30:32;;;;;;;0.30;0.10;;;20.70;40.90;;;;;;4981789;28;20109;-59
2024/01/02 05:32:57;;;;;;;0.20;0.08;;;20.70;41.00;;;;;;4980725;28;20038;-60
2024/01/02 05:35:23;;;;;;;0.00;0.00;;;20.70;41.00;;;;;;4983520;28;20073;-60
2024/01/02 05:37:49;;;;;;;0.03;0.00;;;20.70;41.10;;;;;;4982641;28;20031;-59
2024/01/02 05:40:15;;;;;;;0.10;0.10;;;20.70;41.20;;;;;;4983123;28;20026;-60
2024/01/02 05:42:40;;;;;;;0.10;0.00;;;20.70;41.20;;;;;;4981279;28;20088;-60
2024/01/02 05:45:07;;;;;;;0.00;0.00;;;20.70;41.30;;;;;;4984091;28;21887;-60
2024/01/02 05:47:33;;;;;;;0.00;0.00;;;20.70;41.30;;;;;;4978303;28;20038;-60
2024/01/02 05:49:58;;;;;;;0.00;0.00;;;20.70;41.40;;;;;;4982383;28;20026;-59
2024/01/02 05:52:24;;;;;;;0.05;0.05;;;20.70;41.50;;;;;;4982530;28;20034;-60
2024/01/02 05:54:50;;;;;;;0.40;0.10;;;20.70;41.50;;;;;;4983794;28;20034;-60
2024/01/02 05:57:16;;;;;;;0.25;0.03;;;20.70;41.60;;;;;;4982520;28;20022;-60
2024/01/02 05:59:41;;;;;;;0.00;0.00;;;20.60;41.60;;;;;;4981025;28;20320;-60
2024/01/02 06:02:07;;;;;;;0.10;0.10;;;20.60;41.70;;;;;;4981928;28;20160;-60
2024/01/02 06:04:33;;;;;;;0.00;0.00;;;20.70;41.80;;;;;;4980219;28;20023;-61
2024/01/02 06:06:59;;;;;;;0.00;0.00;;;20.70;41.90;;;;;;4986280;28;20042;-61
2024/01/02 06:09:25;;;;;;;0.00;0.00;;;20.70;41.90;;;;;;4979585;28;20416;-60
2024/01/02 06:11:51;;;;;;;0.00;0.00;;;20.70;41.90;;;;;;4984845;28;20194;-61
2024/01/02 06:14:18;;;;;;;0.00;0.00;;;20.70;42.00;;;;;;4983145;28;21740;-61
2024/01/02 06:16:43;;;;;;;0.10;0.00;;;20.70;42.00;;;;;;4981959;28;20033;-60
2024/01/02 06:19:09;;;;;;;0.00;0.00;;;20.60;42.00;;;;;;4983643;28;20023;-60
2024/01/02 06:21:35;;;;;;;0.00;0.00;;;20.70;42.20;;;;;;4978547;28;20022;-61
2024/01/02 06:24:01;;;;;;;0.00;0.00;;;20.60;42.20;;;;;;4993318;28;20084;-61
2024/01/02 06:26:26;;;;;;;0.00;0.00;;;20.60;42.30;;;;;;4984414;28;20022;-60
2024/01/02 06:28:52;;;;;;;0.00;0.00;;;20.70;42.40;;;;;;4985410;28;20440;-61
2024/01/02 06:31:21;;;;;;;0.10;0.10;;;20.60;42.40;;;;;;4977664;28;20042;-61
2024/01/02 06:33:47;;;;;;;0.10;0.00;;;20.70;42.60;;;;;;4985541;28;20031;-60
2024/01/02 06:36:14;;;;;;;0.00;0.00;;;20.60;42.60;;;;;;4982269;28;20027;-60
2024/01/02 06:38:40;;;;;;;0.00;0.00;;;20.60;42.70;;;;;;4979755;28;20081;-61
2024/01/02 06:41:06;;;;;;;0.00;0.00;;;20.60;42.80;;;;;;4982403;28;20058;-61
2024/01/02 06:43:32;;;;;;;0.10;0.00;;;20.60;42.90;;;;;;4981809;28;20034;-61
2024/01/02 06:45:58;;;;;;;0.00;0.00;;;20.60;43.00;;;;;;4980099;28;20022;-61
2024/01/02 06:48:24;;;;;;;0.15;0.08;;;20.60;43.00;;;;;;4981501;28;20268;-61
2024/01/02 06:50:49;;;;;;;0.10;0.03;;;20.60;43.10;;;;;;4981539;28;20089;-61
2024/01/02 06:53:15;;;;;;;0.13;0.10;;;20.60;43.20;;;;;;4983580;28;20026;-61
2024/01/02 06:55:41;;;;;;;0.00;0.00;;;20.50;43.30;;;;;;4986994;28;20091;-61
2024/01/02 06:58:07;;;;;;;0.10;0.00;;;20.50;43.40;;;;;;4980037;28;20038;-61
2024/01/02 07:00:33;;;;;;;0.10;0.10;;;20.50;43.50;;;;;;4986337;28;20035;-61
2024/01/02 07:03:00;;;;;;;0.22;0.00;;;20.50;43.60;;;;;;4983196;28;20058;-61
2024/01/02 07:05:27;;;;;;;0.28;0.10;;;20.50;43.70;;;;;;4989600;28;20081;-61
2024/01/02 07:07:52;;;;;;;0.00;0.00;;;20.50;43.80;;;;;;4991130;28;20060;-61
2024/01/02 07:10:18;;;;;;;0.00;0.00;;;20.50;43.90;;;;;;4983929;28;21880;-61
2024/01/02 07:12:44;;;;;;;0.30;0.05;;;20.50;44.00;;;;;;4985520;28;20072;-60
2024/01/02 07:15:10;;;;;;;0.10;0.10;;;20.50;44.10;;;;;;4988782;28;20109;-60
2024/01/02 07:17:36;;;;;;;0.20;0.20;;;20.50;44.10;;;;;;4990425;28;20089;-60
2024/01/02 07:20:02;;;;;;;0.10;0.10;;;20.40;44.20;;;;;;4989692;28;21784;-58
2024/01/02 07:22:28;;;;;;;0.05;0.05;;;20.40;44.30;;;;;;4984812;28;20109;-61
2024/01/02 07:24:54;;;;;;;0.30;0.10;;;20.40;44.40;;;;;;4988335;28;20129;-61
2024/01/02 07:27:21;;;;;;;0.35;0.20;;;20.40;44.40;;;;;;4988175;28;20037;-60
2024/01/02 07:29:47;;;;;;;0.20;0.10;;;20.40;44.50;;;;;;4979405;28;20046;-60
2024/01/02 07:32:13;;;;;;;0.13;0.10;;;20.40;44.60;;;;;;4982610;28;20403;-60
2024/01/02 07:34:39;;;;;;;1.25;0.40;;;20.40;44.70;;;;;;4984347;28;20027;-61
2024/01/02 07:37:05;;;;;;;0.43;0.20;;;20.40;44.70;;;;;;4983708;28;20031;-58
2024/01/02 07:39:30;;;;;;;1.50;0.20;;;20.40;44.80;;;;;;4986906;28;20693;-61
2024/01/02 07:41:57;;;;;;;0.68;0.15;;;20.40;44.80;;;;;;4988303;28;20599;-58
2024/01/02 07:44:27;;;;;;;1.17;0.43;;;20.40;44.90;;;;;;4991134;28;20026;-59
2024/01/02 07:46:53;;;;;;;0.88;0.20;;;20.40;45.00;;;;;;4984875;28;20523;-60
2024/01/02 07:49:18;;;;;;;0.73;0.40;;;20.30;45.00;;;;;;4991727;28;20048;-61
2024/01/02 07:51:44;;;;;;;0.57;0.30;;;20.30;45.00;;;;;;4984543;28;20101;-60
2024/01/02 07:54:10;;;;;;;1.40;0.40;;;20.30;45.10;;;;;;5000473;28;20088;-60
2024/01/02 07:56:36;;;;;;;0.82;0.30;;;20.30;45.10;;;;;;5001038;28;20114;-59
2024/01/02 07:59:02;;;;;;;1.17;0.43;;;20.30;45.20;;;;;;4997895;28;20022;-61
2024/01/02 08:01:28;;;;;;;1.77;0.50;;;20.30;45.30;;;;;;5000171;28;20114;-60
2024/01/02 08:03:55;;;;;;;1.92;0.52;;;20.30;45.30;;;;;;4997029;28;20040;-61
2024/01/02 08:06:20;;;;;;;1.20;0.40;;;20.30;45.40;;;;;;5002123;28;20109;-60
2024/01/02 08:08:46;;;;;;;0.98;0.25;;;20.30;45.50;;;;;;4999873;28;20026;-61
2024/01/02 08:11:12;;;;;;;1.00;0.40;;;20.30;45.50;;;;;;5004655;28;20053;-59
2024/01/02 08:13:38;;;;;;;1.27;0.50;;;20.30;45.50;;;;;;5001156;28;20042;-58
2024/01/02 08:16:04;;;;;;;1.73;0.52;;;20.30;45.50;;;;;;5000148;28;20027;-60
2024/01/02 08:18:32;;;;;;;0.70;0.30;;;20.40;45.60;;;;;;5000637;28;20034;-59
2024/01/02 08:20:58;;;;;;;1.02;0.43;;;20.40;45.70;;;;;;5000817;28;20105;-60
2024/01/02 08:23:25;;;;;;;0.88;0.40;;;20.40;45.70;;;;;;5002877;28;20513;-59
2024/01/02 08:25:51;;;;;;;1.38;0.50;;;20.40;45.70;;;;;;5000548;28;20433;-60
2024/01/02 08:28:18;;;;;;;1.17;0.50;;;20.40;45.60;;;;;;4999217;28;20353;-61
2024/01/02 08:30:44;;;;;;;0.80;0.40;;;20.50;45.80;;;;;;4998276;28;20050;-60
2024/01/02 08:33:10;;;;;;;1.30;0.47;;;20.50;45.70;;;;;;5000318;28;20036;-59
2024/01/02 08:35:36;;;;;;;0.80;0.43;;;20.50;45.80;;;;;;5011270;28;20080;-59
2024/01/02 08:38:03;;;;;;;2.40;0.57;;;20.60;45.80;;;;;;5004367;28;20091;-61
2024/01/02 08:40:29;;;;;;;2.25;0.88;;;20.60;45.80;;;;;;4998051;28;20441;-59
2024/01/02 08:42:55;;;;;;;1.70;0.60;;;20.60;45.80;;;;;;5000778;28;20023;-60
2024/01/02 08:45:21;;;;;;;1.83;0.70;;;20.60;45.80;;;;;;4999980;28;20572;-60
2024/01/02 08:47:46;;;;;;;1.80;0.60;;;20.70;45.90;;;;;;5003609;28;20050;-58
2024/01/02 08:50:12;;;;;;;1.25;0.50;;;20.70;45.90;;;;;;5005350;28;20373;-59
2024/01/02 08:52:38;;;;;;;1.70;0.70;;;20.70;45.90;;;;;;4997120;28;20449;-59
2024/01/02 08:55:04;;;;;;;1.42;0.40;;;20.80;45.90;;;;;;4998546;28;20026;-61
2024/01/02 08:57:31;;;;;;;2.67;0.80;;;20.80;45.90;;;;;;5005295;28;20042;-61
2024/01/02 08:59:57;;;;;;;4.53;0.82;;;20.90;45.90;;;;;;5007992;28;20030;-58
2024/01/02 09:02:23;;;;;;;3.10;0.93;;;20.90;45.90;;;;;;5000737;28;20097;-61
2024/01/02 09:04:49;;;;;;;2.13;0.90;;;20.90;45.90;;;;;;5004239;28;20030;-61
2024/01/02 09:07:15;;;;;;;3.08;1.10;;;20.90;45.90;;;;;;4998628;28;20026;-61
2024/01/02 09:09:40;;;;;;;1.95;0.90;;;20.90;45.90;;;;;;5001108;28;20080;-61
2024/01/02 09:12:08;;;;;;;3.63;1.15;;;21.00;45.90;;;;;;4991653;28;20146;-60
2024/01/02 09:14:37;;;;;;;2.28;0.93;;;21.00;45.90;;;;;;5003324;28;20382;-59
2024/01/02 09:17:03;;;;;;;3.95;1.10;;;21.00;45.90;;;;;;5002821;28;20160;-59
2024/01/02 09:19:31;;;;;;;3.15;1.00;;;21.10;45.90;;;;;;5001170;28;20508;-58
2024/01/02 09:21:57;;;;;;;4.57;1.35;;;21.10;45.90;;;;;;4998196;28;20438;-60
2024/01/02 09:24:22;;;;;;;3.03;1.10;;;21.10;45.90;;;;;;4994505;28;20033;-60
2024/01/02 09:26:51;;;;;;;2.05;1.00;;;21.10;45.90;;;;;;4994458;28;20033;-58
2024/01/02 09:29:17;;;;;;;2.63;0.85;;;21.10;45.90;;;;;;4994358;28;20532;-57
2024/01/02 09:31:44;;;;;;;1.95;0.80;;;21.10;45.90;;;;;;4994633;28;20125;-60
2024/01/02 09:34:10;;;;;;;2.63;0.80;;;21.10;45.90;;;;;;5000197;28;20036;-57
2024/01/02 09:36:37;;;;;;;5.30;0.88;;;21.10;46.00;;;;;;4986104;28;20674;-63
2024/01/02 09:39:03;;;;;;;2.53;1.02;;;21.10;46.00;;;;;;4982169;28;20341;-61
2024/01/02 09:41:48;;;;;;;3.30;1.20;;;21.10;46.10;;;;;;4981938;28;20042;-62
2024/01/02 09:44:37;;;;;;;3.92;1.30;;;21.10;46.10;;;;;;4995066;28;20335;-65
2024/01/02 09:47:34;;;;;;;3.78;0.95;;;21.20;46.20;;;;;;4978800;28;20034;-64
2024/01/02 09:50:08;;;;;;;2.45;0.95;;;21.20;46.30;;;;;;4989905;28;20023;-64
2024/01/02 09:53:03;;;;;;;2.75;1.08;;;21.20;46.20;;;;;;5001845;28;20034;-61
2024/01/02 09:55:29;;;;;;;2.90;1.00;;;21.30;46.30;;;;;;4999515;28;20064;-61
2024/01/02 09:58:20;;;;;;;3.40;1.10;;;21.30;46.30;;;;;;5011095;28;20072;-60
2024/01/02 10:01:05;;;;;;;1.77;0.90;;;21.30;46.20;;;;;;4998582;28;20040;-61
2024/01/02 10:03:49;;;;;;;;;;;21.30;46.20;;;;;;4994982;28;20091;-60
2024/01/02 10:06:40;;;;;;;2.00;0.70;;;21.30;46.10;;;;;;4996442;28;20020;-61
2024/01/02 10:09:30;;;;;;;2.97;0.90;;;21.30;46.10;;;;;;5001397;28;20033;-61
2024/01/02 10:12:11;;;;;;;3.75;1.00;;;21.40;46.10;;;;;;4998015;28;20046;-61
2024/01/02 10:14:46;;;;;;;4.10;1.27;;;21.40;46.00;;;;;;5013419;28;20389;-61
2024/01/02 10:17:21;;;;;;;3.05;0.80;;;21.40;46.10;;;;;;5004127;28;20112;-61
2024/01/02 10:19:49;;;;;;;;;;;21.40;46.00;;;;;;5005377;28;20460;-60
2024/01/02 10:22:58;;;;;;;1.52;0.70;;;21.40;46.00;;;;;;5004836;28;19917;-61
2024/01/02 10:25:25;;;;;;;1.98;0.70;;;21.40;45.90;;;;;;4998371;28;20388;-61
2024/01/02 10:28:14;;;;;;;1.75;0.80;;;21.40;45.90;;;;;;5005335;28;20034;-61
2024/01/02 10:30:51;;;;;;;0.93;0.55;;;21.50;45.90;;;;;;4999847;28;20042;-61
2024/01/02 10:33:22;;;;;;;2.10;0.90;;;21.50;45.90;;;;;;5001215;28;20412;-60
2024/01/02 10:35:54;;;;;;;3.08;0.90;;;21.50;45.90;;;;;;5005436;28;20114;-61
2024/01/02 10:38:22;;;;;;;1.83;0.80;;;21.50;45.90;;;;;;5006909;28;20122;-60
2024/01/02 10:41:18;;;;;;;1.95;0.75;;;21.50;45.90;;;;;;5003535;28;20033;-60
2024/01/02 10:43:59;;;;;;;2.28;0.70;;;21.60;45.90;;;;;;4989146;28;20050;-61
2024/01/02 10:46:38;;;;;;;1.98;0.82;;;21.60;45.90;;;;;;5003030;28;20349;-61
2024/01/02 10:49:26;;;;;;;2.30;0.95;;;21.60;45.90;;;;;;5004376;28;20509;-61
2024/01/02 10:52:19;;;;;;;2.15;0.80;;;21.60;45.90;;;;;;5007904;28;20108;-60
2024/01/02 10:55:19;;;;;;;1.30;0.50;;;21.60;45.90;;;;;;5001861;28;20023;-61
2024/01/02 10:57:55;;;;;;;2.88;0.90;;;21.60;45.90;;;;;;4999673;28;20507;-60
2024/01/02 11:00:23;;;;;;;2.15;0.70;;;21.60;45.90;;;;;;5009548;28;20045;-60
2024/01/02 11:03:03;;;;;;;1.63;0.55;;;21.70;45.90;;;;;;5010423;28;20116;-60
2024/01/02 11:05:43;;;;;;;1.25;0.52;;;21.70;45.90;;;;;;4995577;28;20038;-60
2024/01/02 11:08:18;;;;;;;1.55;0.70;;;21.70;45.90;;;;;;5003768;28;20098;-60
2024/01/02 11:10:59;;;;;;;0.77;0.40;;;21.70;45.90;;;;;;5003903;28;20133;-61
2024/01/02 11:13:27;;;;;;;1.98;0.68;;;21.70;45.90;;;;;;5015388;28;20029;-60
2024/01/02 11:16:07;;;;;;;1.08;0.73;;;21.70;45.90;;;;;;5001652;28;20026;-59
2024/01/02 11:18:35;;;;;;;0.90;0.40;;;21.70;46.00;;;;;;5004166;28;20052;-62
2024/01/02 11:21:34;;;;;;;0.75;0.45;;;21.70;46.00;;;;;;5003144;28;20038;-62
2024/01/02 11:24:06;;;;;;;1.00;0.45;;;21.70;46.00;;;;;;4986241;28;20354;-61
2024/01/02 11:26:40;;;;;;;1.52;0.70;;;21.70;46.10;;;;;;4998763;28;20034;-62
2024/01/02 11:29:11;;;;;;;1.10;0.50;;;21.70;46.20;;;;;;5004273;28;20049;-59
2024/01/02 11:31:37;;;;;;;0.60;0.43;;;21.70;46.20;;;;;;5003800;28;20042;-63
2024/01/02 11:34:06;;;;;;;2.13;0.57;;;21.70;46.20;;;;;;5007124;28;20064;-64
2024/01/02 11:36:47;;;;;;;0.60;0.50;;;21.70;46.20;;;;;;4995946;28;20046;-65
2024/01/02 11:39:18;;;;;;;1.42;0.43;;;21.80;46.30;;;;;;4988405;28;20030;-65
2024/01/02 11:41:58;;;;;;;2.80;0.40;;;21.80;46.20;;;;;;4985857;28;20414;-62
2024/01/02 11:45:08;;;;;;;2.97;0.40;;;22.00;46.20;;;;;;4986225;28;20034;-65
2024/01/02 11:47:57;;;;;;;0.85;0.40;;;22.10;46.00;;;;;;4946204;29;20178;-64
2024/01/02 11:50:50;;;;;;;0.93;0.40;;;22.30;45.90;;;;;;4997393;28;20037;-63
2024/01/02 11:53:39;;;;;;;0.60;0.40;;;22.40;45.80;;;;;;4984029;28;20039;-62
2024/01/02 11:56:08;;;;;;;1.40;0.50;;;22.50;45.60;;;;;;4981466;28;20042;-61
2024/01/02 11:58:58;;;;;;;0.52;0.30;;;22.50;45.50;;;;;;4992374;28;20034;-62
2024/01/02 12:01:42;;;;;;;3.13;0.40;;;22.60;45.50;;;;;;4994287;28;20053;-62
2024/01/02 12:04:30;;;;;;;3.00;0.40;;;22.60;45.50;;;;;;4992434;28;20034;-61
2024/01/02 12:07:15;;;;;;;0.77;0.40;;;22.60;45.50;;;;;;4997007;28;20057;-61
2024/01/02 12:09:44;;;;;;;1.13;0.35;;;22.60;45.50;;;;;;5006459;28;20417;-60
2024/01/02 12:12:28;;;;;;;3.08;0.38;;;22.60;45.50;;;;;;4980521;28;20055;-62
2024/01/02 12:15:03;;;;;;;;;;;22.70;45.60;;;;;;4996174;28;20040;-61
2024/01/02 12:17:33;;;;;;;0.95;0.22;;;22.70;45.50;;;;;;4989676;28;20009;-61
2024/01/02 12:20:08;;;;;;;2.03;0.30;;;22.70;45.50;;;;;;4994098;28;20033;-62
2024/01/02 12:22:34;;;;;;;1.05;0.40;;;22.70;45.50;;;;;;4991551;28;20531;-61
2024/01/02 12:25:06;;;;;;;1.20;0.40;;;22.70;45.50;;;;;;4990052;28;20033;-65
2024/01/02 12:27:34;;;;;;;0.70;0.30;;;22.80;45.60;;;;;;4989736;28;20450;-61
2024/01/02 12:30:04;;;;;;;0.98;0.40;;;22.80;45.50;;;;;;4987760;28;20054;-61
2024/01/02 12:32:36;;;;;;;0.57;0.30;;;22.80;45.50;;;;;;4994172;28;20034;-65
2024/01/02 12:35:24;;;;;;;1.02;0.32;;;22.80;45.50;;;;;;4993762;28;20449;-68
2024/01/02 12:38:17;;;;;;;0.75;0.30;;;22.90;45.50;;;;;;4991430;28;20439;-65
2024/01/02 12:40:47;;;;;;;0.30;0.20;;;22.90;45.50;;;;;;4997424;28;20074;-64
2024/01/02 12:43:21;;;;;;;1.35;0.30;;;22.90;45.50;;;;;;4993465;28;20076;-65
2024/01/02 12:45:51;;;;;;;0.38;0.30;;;22.90;45.50;;;;;;4996861;28;20465;-66
2024/01/02 12:48:23;;;;;;;0.40;0.15;;;22.90;45.50;;;;;;4991290;28;20037;-67
2024/01/02 12:50:54;;;;;;;0.32;0.22;;;22.90;45.50;;;;;;4993126;28;20034;-67
2024/01/02 12:53:24;;;;;;;0.93;0.30;;;22.90;45.50;;;;;;4994804;28;20070;-66
2024/01/02 12:55:55;;;;;;;1.25;0.30;;;22.90;45.40;;;;;;4993013;28;20037;-65
2024/01/02 12:58:21;;;;;;;3.03;0.30;;;22.90;45.40;;;;;;4993729;28;20027;-66